sensor_id;sensor_type;location;lat;lon;timestamp;pressure;altitude;pressure_sealevel;temperature;humidity
59493;BME280;45497;43.996;22.876;2023-10-09T00:01:27;101843.44;;;18.06;41.59
59493;BME280;45497;43.996;22.876;2023-10-09T00:03:55;101851.31;;;17.71;42.32
59493;BME280;45497;43.996;22.876;2023-10-09T00:06:22;101842.69;;;17.54;42.61
59493;BME280;45497;43.996;22.876;2023-10-09T00:09:09;101846.41;;;17.74;41.88
59493;BME280;45497;43.996;22.876;2023-10-09T00:11:44;101855.22;;;17.68;41.70
59493;BME280;45497;43.996;22.876;2023-10-09T00:14:13;101850.09;;;17.73;41.74
59493;BME280;45497;43.996;22.876;2023-10-09T00:16:41;101861.66;;;17.89;41.24
59493;BME280;45497;43.996;22.876;2023-10-09T00:19:22;101866.47;;;17.93;40.85
59493;BME280;45497;43.996;22.876;2023-10-09T00:22:14;101873.22;;;17.89;40.88
59493;BME280;45497;43.996;22.876;2023-10-09T00:25:04;101857.75;;;17.91;40.87
59493;BME280;45497;43.996;22.876;2023-10-09T00:27:40;101871.09;;;17.85;40.70
59493;BME280;45497;43.996;22.876;2023-10-09T00:30:31;101860.97;;;17.65;41.36
59493;BME280;45497;43.996;22.876;2023-10-09T00:33:00;101873.00;;;17.54;41.61
59493;BME280;45497;43.996;22.876;2023-10-09T00:35:38;101878.56;;;17.53;41.47
59493;BME280;45497;43.996;22.876;2023-10-09T00:38:09;101874.19;;;17.52;41.31
59493;BME280;45497;43.996;22.876;2023-10-09T00:40:41;101878.00;;;17.57;41.02
59493;BME280;45497;43.996;22.876;2023-10-09T00:43:18;101873.47;;;17.58;40.72
59493;BME280;45497;43.996;22.876;2023-10-09T00:45:46;101878.91;;;17.50;40.62
59493;BME280;45497;43.996;22.876;2023-10-09T00:48:20;101890.13;;;17.38;40.85
59493;BME280;45497;43.996;22.876;2023-10-09T00:51:02;101891.31;;;17.21;41.25
59493;BME280;45497;43.996;22.876;2023-10-09T00:53:42;101888.28;;;16.94;41.91
59493;BME280;45497;43.996;22.876;2023-10-09T00:56:07;101884.44;;;16.74;42.47
59493;BME280;45497;43.996;22.876;2023-10-09T00:58:55;101879.53;;;16.77;42.16
59493;BME280;45497;43.996;22.876;2023-10-09T01:01:26;101887.38;;;16.64;42.47
59493;BME280;45497;43.996;22.876;2023-10-09T01:04:03;101900.63;;;16.57;42.59
59493;BME280;45497;43.996;22.876;2023-10-09T01:06:45;101903.63;;;16.39;43.15
59493;BME280;45497;43.996;22.876;2023-10-09T01:09:31;101916.47;;;16.21;43.72
59493;BME280;45497;43.996;22.876;2023-10-09T01:12:10;101906.00;;;16.11;43.82
59493;BME280;45497;43.996;22.876;2023-10-09T01:14:47;101907.44;;;16.22;43.19
59493;BME280;45497;43.996;22.876;2023-10-09T01:17:24;101920.97;;;15.97;43.40
59493;BME280;45497;43.996;22.876;2023-10-09T01:20:22;101916.97;;;15.93;43.15
59493;BME280;45497;43.996;22.876;2023-10-09T01:23:03;101924.44;;;15.66;43.61
59493;BME280;45497;43.996;22.876;2023-10-09T01:25:29;101929.59;;;15.68;43.55
59493;BME280;45497;43.996;22.876;2023-10-09T01:28:07;101933.16;;;15.60;43.60
59493;BME280;45497;43.996;22.876;2023-10-09T01:30:32;101944.72;;;15.53;43.88
59493;BME280;45497;43.996;22.876;2023-10-09T01:33:00;101951.53;;;15.55;43.37
59493;BME280;45497;43.996;22.876;2023-10-09T01:35:37;101956.78;;;15.32;43.62
59493;BME280;45497;43.996;22.876;2023-10-09T01:38:15;101953.97;;;15.17;43.92
59493;BME280;45497;43.996;22.876;2023-10-09T01:40:41;101960.50;;;15.15;44.21
59493;BME280;45497;43.996;22.876;2023-10-09T01:43:10;101955.13;;;15.31;43.56
59493;BME280;45497;43.996;22.876;2023-10-09T01:45:39;101969.75;;;15.52;43.15
59493;BME280;45497;43.996;22.876;2023-10-09T01:48:07;101974.44;;;15.49;43.05
59493;BME280;45497;43.996;22.876;2023-10-09T01:50:35;101989.47;;;15.51;43.03
59493;BME280;45497;43.996;22.876;2023-10-09T01:53:02;101985.28;;;15.48;43.04
59493;BME280;45497;43.996;22.876;2023-10-09T01:55:31;101986.50;;;15.45;43.38
59493;BME280;45497;43.996;22.876;2023-10-09T01:58:07;101998.69;;;15.32;43.77
59493;BME280;45497;43.996;22.876;2023-10-09T02:00:55;102002.53;;;15.37;43.44
59493;BME280;45497;43.996;22.876;2023-10-09T02:03:22;102003.22;;;15.31;43.94
59493;BME280;45497;43.996;22.876;2023-10-09T02:06:02;102011.22;;;15.31;43.75
59493;BME280;45497;43.996;22.876;2023-10-09T02:08:43;101999.19;;;15.35;43.58
59493;BME280;45497;43.996;22.876;2023-10-09T02:11:15;102005.38;;;15.36;43.46
59493;BME280;45497;43.996;22.876;2023-10-09T02:13:55;102014.41;;;15.18;43.79
59493;BME280;45497;43.996;22.876;2023-10-09T02:16:26;102013.75;;;15.08;43.91
59493;BME280;45497;43.996;22.876;2023-10-09T02:18:55;102015.44;;;15.09;43.98
59493;BME280;45497;43.996;22.876;2023-10-09T02:21:36;102012.25;;;14.97;44.03
59493;BME280;45497;43.996;22.876;2023-10-09T02:24:07;102026.28;;;14.91;43.95
59493;BME280;45497;43.996;22.876;2023-10-09T02:26:54;102020.59;;;14.94;43.59
59493;BME280;45497;43.996;22.876;2023-10-09T02:29:20;102014.25;;;15.03;43.39
59493;BME280;45497;43.996;22.876;2023-10-09T02:31:49;102004.91;;;14.99;43.43
59493;BME280;45497;43.996;22.876;2023-10-09T02:34:28;102010.91;;;15.09;43.07
59493;BME280;45497;43.996;22.876;2023-10-09T02:36:58;102011.94;;;15.00;43.12
59493;BME280;45497;43.996;22.876;2023-10-09T02:39:31;102012.25;;;15.14;43.23
59493;BME280;45497;43.996;22.876;2023-10-09T02:42:11;102009.06;;;15.26;42.68
59493;BME280;45497;43.996;22.876;2023-10-09T02:44:39;102021.88;;;15.39;42.24
59493;BME280;45497;43.996;22.876;2023-10-09T02:47:06;102020.25;;;15.38;42.41
59493;BME280;45497;43.996;22.876;2023-10-09T02:49:43;102032.25;;;15.42;42.21
59493;BME280;45497;43.996;22.876;2023-10-09T02:52:09;102034.94;;;15.34;42.40
59493;BME280;45497;43.996;22.876;2023-10-09T02:54:42;102042.63;;;15.21;42.94
59493;BME280;45497;43.996;22.876;2023-10-09T02:57:11;102038.97;;;15.05;43.34
59493;BME280;45497;43.996;22.876;2023-10-09T02:59:47;102042.97;;;15.09;43.49
59493;BME280;45497;43.996;22.876;2023-10-09T03:02:13;102028.44;;;15.04;43.44
59493;BME280;45497;43.996;22.876;2023-10-09T03:04:38;102035.81;;;15.02;43.31
59493;BME280;45497;43.996;22.876;2023-10-09T03:07:09;102034.44;;;14.73;44.04
59493;BME280;45497;43.996;22.876;2023-10-09T03:09:37;102035.91;;;14.67;44.31
59493;BME280;45497;43.996;22.876;2023-10-09T03:12:04;102042.44;;;14.81;43.89
59493;BME280;45497;43.996;22.876;2023-10-09T03:14:33;102041.47;;;14.82;43.98
59493;BME280;45497;43.996;22.876;2023-10-09T03:17:01;102039.25;;;14.61;44.12
59493;BME280;45497;43.996;22.876;2023-10-09T03:19:33;102047.88;;;14.55;44.33
59493;BME280;45497;43.996;22.876;2023-10-09T03:22:08;102046.22;;;14.54;44.28
59493;BME280;45497;43.996;22.876;2023-10-09T03:24:35;102042.25;;;14.58;44.19
59493;BME280;45497;43.996;22.876;2023-10-09T03:27:03;102045.75;;;14.59;44.11
59493;BME280;45497;43.996;22.876;2023-10-09T03:29:28;102040.94;;;14.62;43.86
59493;BME280;45497;43.996;22.876;2023-10-09T03:31:54;102038.59;;;14.59;43.79
59493;BME280;45497;43.996;22.876;2023-10-09T03:34:23;102049.31;;;14.33;44.54
59493;BME280;45497;43.996;22.876;2023-10-09T03:36:50;102040.28;;;14.26;44.66
59493;BME280;45497;43.996;22.876;2023-10-09T03:39:33;102038.13;;;14.29;44.46
59493;BME280;45497;43.996;22.876;2023-10-09T03:42:01;102040.13;;;14.27;44.48
59493;BME280;45497;43.996;22.876;2023-10-09T03:44:34;102045.97;;;14.23;44.27
59493;BME280;45497;43.996;22.876;2023-10-09T03:47:06;102050.13;;;14.17;44.38
59493;BME280;45497;43.996;22.876;2023-10-09T03:49:37;102041.41;;;14.15;44.55
59493;BME280;45497;43.996;22.876;2023-10-09T03:52:11;102046.75;;;14.15;44.39
59493;BME280;45497;43.996;22.876;2023-10-09T03:54:37;102053.13;;;13.88;44.68
59493;BME280;45497;43.996;22.876;2023-10-09T03:57:03;102057.78;;;13.86;44.75
59493;BME280;45497;43.996;22.876;2023-10-09T03:59:29;102068.97;;;13.89;44.69
59493;BME280;45497;43.996;22.876;2023-10-09T04:01:57;102072.63;;;13.62;45.13
59493;BME280;45497;43.996;22.876;2023-10-09T04:04:27;102072.34;;;13.65;45.02
59493;BME280;45497;43.996;22.876;2023-10-09T04:06:58;102077.19;;;13.70;44.53
59493;BME280;45497;43.996;22.876;2023-10-09T04:09:24;102085.56;;;13.49;45.07
59493;BME280;45497;43.996;22.876;2023-10-09T04:11:52;102092.53;;;13.50;45.07
59493;BME280;45497;43.996;22.876;2023-10-09T04:14:40;102098.66;;;13.42;45.17
59493;BME280;45497;43.996;22.876;2023-10-09T04:17:17;102093.78;;;13.37;44.99
59493;BME280;45497;43.996;22.876;2023-10-09T04:20:04;102092.25;;;13.35;45.03
59493;BME280;45497;43.996;22.876;2023-10-09T04:22:46;102099.00;;;13.29;45.44
59493;BME280;45497;43.996;22.876;2023-10-09T04:25:36;102091.41;;;13.16;45.44
59493;BME280;45497;43.996;22.876;2023-10-09T04:28:11;102101.16;;;13.26;45.29
59493;BME280;45497;43.996;22.876;2023-10-09T04:30:40;102098.63;;;13.24;45.15
59493;BME280;45497;43.996;22.876;2023-10-09T04:33:08;102112.25;;;13.21;45.29
59493;BME280;45497;43.996;22.876;2023-10-09T04:36:13;102111.28;;;13.22;45.36
59493;BME280;45497;43.996;22.876;2023-10-09T04:38:52;102104.56;;;13.36;44.98
59493;BME280;45497;43.996;22.876;2023-10-09T04:41:38;102100.31;;;13.43;44.61
59493;BME280;45497;43.996;22.876;2023-10-09T04:44:09;102102.28;;;13.41;44.58
59493;BME280;45497;43.996;22.876;2023-10-09T04:47:09;102112.13;;;13.41;44.66
59493;BME280;45497;43.996;22.876;2023-10-09T04:49:37;102108.38;;;13.33;44.99
59493;BME280;45497;43.996;22.876;2023-10-09T04:52:21;102098.78;;;13.41;44.52
59493;BME280;45497;43.996;22.876;2023-10-09T04:55:16;102112.34;;;13.47;44.50
59493;BME280;45497;43.996;22.876;2023-10-09T04:57:48;102104.53;;;13.54;44.41
59493;BME280;45497;43.996;22.876;2023-10-09T05:00:26;102112.72;;;13.52;44.58
59493;BME280;45497;43.996;22.876;2023-10-09T05:02:54;102119.25;;;13.58;44.30
59493;BME280;45497;43.996;22.876;2023-10-09T05:05:26;102118.63;;;13.64;44.17
59493;BME280;45497;43.996;22.876;2023-10-09T05:08:11;102119.97;;;13.68;44.15
59493;BME280;45497;43.996;22.876;2023-10-09T05:11:21;102130.63;;;13.68;44.47
59493;BME280;45497;43.996;22.876;2023-10-09T05:14:01;102125.00;;;13.71;44.09
59493;BME280;45497;43.996;22.876;2023-10-09T05:16:38;102121.34;;;13.72;43.99
59493;BME280;45497;43.996;22.876;2023-10-09T05:19:24;102128.59;;;13.62;44.40
59493;BME280;45497;43.996;22.876;2023-10-09T05:22:10;102139.25;;;13.62;44.34
59493;BME280;45497;43.996;22.876;2023-10-09T05:24:58;102141.28;;;13.68;44.44
59493;BME280;45497;43.996;22.876;2023-10-09T05:27:26;102140.94;;;13.63;44.64
59493;BME280;45497;43.996;22.876;2023-10-09T05:30:13;102151.53;;;13.55;44.73
59493;BME280;45497;43.996;22.876;2023-10-09T05:32:57;102154.09;;;13.47;44.86
59493;BME280;45497;43.996;22.876;2023-10-09T05:35:42;102162.09;;;13.47;45.13
59493;BME280;45497;43.996;22.876;2023-10-09T05:38:29;102155.09;;;13.28;45.54
59493;BME280;45497;43.996;22.876;2023-10-09T05:40:59;102163.91;;;13.10;45.99
59493;BME280;45497;43.996;22.876;2023-10-09T05:43:45;102167.09;;;13.14;46.13
59493;BME280;45497;43.996;22.876;2023-10-09T05:46:29;102176.38;;;13.28;45.88
59493;BME280;45497;43.996;22.876;2023-10-09T05:49:01;102173.13;;;13.34;45.67
59493;BME280;45497;43.996;22.876;2023-10-09T05:51:35;102181.75;;;13.46;45.42
59493;BME280;45497;43.996;22.876;2023-10-09T05:54:07;102181.13;;;13.34;46.11
59493;BME280;45497;43.996;22.876;2023-10-09T05:56:59;102166.00;;;13.34;45.78
59493;BME280;45497;43.996;22.876;2023-10-09T05:59:46;102174.66;;;13.54;45.54
59493;BME280;45497;43.996;22.876;2023-10-09T06:02:31;102175.72;;;13.62;45.61
59493;BME280;45497;43.996;22.876;2023-10-09T06:05:15;102187.81;;;13.74;45.43
59493;BME280;45497;43.996;22.876;2023-10-09T06:08:04;102179.75;;;13.48;45.53
59493;BME280;45497;43.996;22.876;2023-10-09T06:10:32;102196.13;;;13.35;45.82
59493;BME280;45497;43.996;22.876;2023-10-09T06:13:07;102194.78;;;13.31;46.11
59493;BME280;45497;43.996;22.876;2023-10-09T06:15:39;102209.50;;;13.43;46.03
59493;BME280;45497;43.996;22.876;2023-10-09T06:18:10;102209.44;;;13.53;46.18
59493;BME280;45497;43.996;22.876;2023-10-09T06:20:51;102212.13;;;13.53;45.99
59493;BME280;45497;43.996;22.876;2023-10-09T06:23:35;102211.19;;;13.62;45.73
59493;BME280;45497;43.996;22.876;2023-10-09T06:26:19;102219.47;;;13.77;45.70
59493;BME280;45497;43.996;22.876;2023-10-09T06:28:51;102212.50;;;13.76;45.94
59493;BME280;45497;43.996;22.876;2023-10-09T06:31:41;102221.81;;;13.98;45.60
59493;BME280;45497;43.996;22.876;2023-10-09T06:34:42;102227.56;;;14.11;44.97
59493;BME280;45497;43.996;22.876;2023-10-09T06:37:13;102217.63;;;14.22;44.86
59493;BME280;45497;43.996;22.876;2023-10-09T06:40:02;102225.69;;;14.30;44.86
59493;BME280;45497;43.996;22.876;2023-10-09T06:42:47;102229.94;;;14.41;44.49
59493;BME280;45497;43.996;22.876;2023-10-09T06:45:22;102239.13;;;14.46;44.88
59493;BME280;45497;43.996;22.876;2023-10-09T06:48:08;102232.84;;;14.56;44.20
59493;BME280;45497;43.996;22.876;2023-10-09T06:50:37;102248.56;;;14.59;44.21
59493;BME280;45497;43.996;22.876;2023-10-09T06:53:21;102245.06;;;14.58;44.25
59493;BME280;45497;43.996;22.876;2023-10-09T06:55:50;102240.13;;;14.45;44.46
59493;BME280;45497;43.996;22.876;2023-10-09T06:58:21;102236.59;;;14.71;44.05
59493;BME280;45497;43.996;22.876;2023-10-09T07:01:07;102233.78;;;14.72;43.81
59493;BME280;45497;43.996;22.876;2023-10-09T07:03:58;102235.09;;;14.68;43.59
59493;BME280;45497;43.996;22.876;2023-10-09T07:06:37;102230.50;;;14.87;43.40
59493;BME280;45497;43.996;22.876;2023-10-09T07:09:03;102233.31;;;14.85;43.15
59493;BME280;45497;43.996;22.876;2023-10-09T07:11:41;102230.69;;;14.94;43.13
59493;BME280;45497;43.996;22.876;2023-10-09T07:14:12;102224.94;;;15.15;42.86
59493;BME280;45497;43.996;22.876;2023-10-09T07:17:16;102232.97;;;15.39;42.13
59493;BME280;45497;43.996;22.876;2023-10-09T07:19:57;102226.31;;;15.52;42.01
59493;BME280;45497;43.996;22.876;2023-10-09T07:22:35;102223.66;;;15.52;41.89
59493;BME280;45497;43.996;22.876;2023-10-09T07:25:05;102225.31;;;15.61;41.52
59493;BME280;45497;43.996;22.876;2023-10-09T07:27:54;102224.16;;;15.47;41.30
59493;BME280;45497;43.996;22.876;2023-10-09T07:30:21;102226.09;;;15.28;41.70
59493;BME280;45497;43.996;22.876;2023-10-09T07:33:06;102230.66;;;15.61;41.21
59493;BME280;45497;43.996;22.876;2023-10-09T07:35:41;102228.69;;;15.71;40.70
59493;BME280;45497;43.996;22.876;2023-10-09T07:38:21;102247.38;;;15.71;40.78
59493;BME280;45497;43.996;22.876;2023-10-09T07:41:18;102240.22;;;15.88;40.83
59493;BME280;45497;43.996;22.876;2023-10-09T07:43:43;102248.59;;;16.01;40.46
59493;BME280;45497;43.996;22.876;2023-10-09T07:46:10;102247.59;;;16.19;39.91
59493;BME280;45497;43.996;22.876;2023-10-09T07:48:56;102254.13;;;16.08;39.75
59493;BME280;45497;43.996;22.876;2023-10-09T07:51:22;102252.78;;;15.79;39.51
59493;BME280;45497;43.996;22.876;2023-10-09T07:53:50;102248.25;;;15.80;39.44
59493;BME280;45497;43.996;22.876;2023-10-09T07:56:26;102240.06;;;15.98;39.46
59493;BME280;45497;43.996;22.876;2023-10-09T07:58:57;102252.09;;;16.10;39.11
59493;BME280;45497;43.996;22.876;2023-10-09T08:01:25;102247.25;;;16.14;39.03
59493;BME280;45497;43.996;22.876;2023-10-09T08:04:05;102249.38;;;16.35;38.97
59493;BME280;45497;43.996;22.876;2023-10-09T08:06:46;102239.44;;;16.60;39.05
59493;BME280;45497;43.996;22.876;2023-10-09T08:09:13;102244.75;;;16.76;38.65
59493;BME280;45497;43.996;22.876;2023-10-09T08:11:44;102244.91;;;16.75;38.54
59493;BME280;45497;43.996;22.876;2023-10-09T08:14:13;102231.16;;;16.94;38.94
59493;BME280;45497;43.996;22.876;2023-10-09T08:16:58;102228.44;;;17.26;39.21
59493;BME280;45497;43.996;22.876;2023-10-09T08:19:50;102207.19;;;17.24;38.78
59493;BME280;45497;43.996;22.876;2023-10-09T08:22:30;102206.53;;;17.22;38.41
59493;BME280;45497;43.996;22.876;2023-10-09T08:25:17;102212.50;;;17.32;38.32
59493;BME280;45497;43.996;22.876;2023-10-09T08:28:19;102212.56;;;17.47;37.90
59493;BME280;45497;43.996;22.876;2023-10-09T08:30:48;102209.31;;;17.52;37.92
59493;BME280;45497;43.996;22.876;2023-10-09T08:33:21;102207.13;;;17.55;37.73
59493;BME280;45497;43.996;22.876;2023-10-09T08:35:56;102207.03;;;17.49;37.26
59493;BME280;45497;43.996;22.876;2023-10-09T08:38:35;102202.59;;;17.56;37.50
59493;BME280;45497;43.996;22.876;2023-10-09T08:41:12;102200.50;;;17.66;37.29
59493;BME280;45497;43.996;22.876;2023-10-09T08:43:53;102187.59;;;17.85;37.28
59493;BME280;45497;43.996;22.876;2023-10-09T08:46:20;102197.28;;;17.94;37.18
59493;BME280;45497;43.996;22.876;2023-10-09T08:49:01;102191.56;;;17.97;37.15
59493;BME280;45497;43.996;22.876;2023-10-09T08:51:31;102191.81;;;18.02;36.94
59493;BME280;45497;43.996;22.876;2023-10-09T08:53:58;102190.28;;;18.08;37.05
59493;BME280;45497;43.996;22.876;2023-10-09T08:56:24;102180.72;;;18.05;36.81
59493;BME280;45497;43.996;22.876;2023-10-09T08:58:55;102190.28;;;18.08;36.46
59493;BME280;45497;43.996;22.876;2023-10-09T09:01:31;102173.69;;;18.04;36.25
59493;BME280;45497;43.996;22.876;2023-10-09T09:03:57;102171.94;;;18.11;36.06
59493;BME280;45497;43.996;22.876;2023-10-09T09:06:25;102162.69;;;17.99;35.99
59493;BME280;45497;43.996;22.876;2023-10-09T09:08:52;102157.09;;;17.86;35.93
59493;BME280;45497;43.996;22.876;2023-10-09T09:11:24;102161.56;;;17.93;36.24
59493;BME280;45497;43.996;22.876;2023-10-09T09:16:24;102122.88;;;18.18;35.96
59493;BME280;45497;43.996;22.876;2023-10-09T09:19:05;102105.47;;;18.28;35.87
59493;BME280;45497;43.996;22.876;2023-10-09T09:21:48;102127.41;;;18.32;36.01
59493;BME280;45497;43.996;22.876;2023-10-09T09:24:21;102128.44;;;18.46;36.03
59493;BME280;45497;43.996;22.876;2023-10-09T09:26:46;102120.81;;;18.49;36.24
59493;BME280;45497;43.996;22.876;2023-10-09T09:29:15;102121.78;;;18.78;36.46
59493;BME280;45497;43.996;22.876;2023-10-09T09:31:58;102103.09;;;18.19;35.56
59493;BME280;45497;43.996;22.876;2023-10-09T09:34:50;102117.31;;;17.36;36.54
59493;BME280;45497;43.996;22.876;2023-10-09T09:37:28;102107.03;;;17.63;36.47
59493;BME280;45497;43.996;22.876;2023-10-09T09:39:57;102103.91;;;17.89;36.06
59493;BME280;45497;43.996;22.876;2023-10-09T09:42:44;102105.88;;;18.10;35.76
59493;BME280;45497;43.996;22.876;2023-10-09T09:45:15;102126.84;;;18.22;35.55
59493;BME280;45497;43.996;22.876;2023-10-09T09:47:50;102113.03;;;18.40;35.43
59493;BME280;45497;43.996;22.876;2023-10-09T09:50:19;102107.69;;;18.40;34.91
59493;BME280;45497;43.996;22.876;2023-10-09T09:53:14;102101.84;;;18.36;34.76
59493;BME280;45497;43.996;22.876;2023-10-09T09:55:54;102106.94;;;18.46;34.59
59493;BME280;45497;43.996;22.876;2023-10-09T09:58:32;102091.47;;;18.48;34.52
59493;BME280;45497;43.996;22.876;2023-10-09T10:01:08;102078.19;;;18.61;34.38
59493;BME280;45497;43.996;22.876;2023-10-09T10:03:49;102084.34;;;18.77;34.40
59493;BME280;45497;43.996;22.876;2023-10-09T10:06:21;102074.06;;;18.80;34.47
59493;BME280;45497;43.996;22.876;2023-10-09T10:08:52;102061.06;;;18.62;33.89
59493;BME280;45497;43.996;22.876;2023-10-09T10:14:17;102050.06;;;18.57;34.19
59493;BME280;45497;43.996;22.876;2023-10-09T10:17:04;102045.78;;;18.63;33.73
59493;BME280;45497;43.996;22.876;2023-10-09T10:20:07;102043.94;;;18.85;34.33
59493;BME280;45497;43.996;22.876;2023-10-09T10:22:39;102042.41;;;18.97;34.06
59493;BME280;45497;43.996;22.876;2023-10-09T10:25:34;102029.81;;;19.26;34.11
59493;BME280;45497;43.996;22.876;2023-10-09T10:31:11;102022.06;;;19.44;33.74
59493;BME280;45497;43.996;22.876;2023-10-09T10:36:27;102000.53;;;19.73;33.98
59493;BME280;45497;43.996;22.876;2023-10-09T10:39:00;101982.09;;;19.70;33.84
59493;BME280;45497;43.996;22.876;2023-10-09T10:41:55;101975.50;;;19.72;33.31
59493;BME280;45497;43.996;22.876;2023-10-09T10:44:32;101972.63;;;19.74;32.96
59493;BME280;45497;43.996;22.876;2023-10-09T10:47:11;101966.41;;;19.73;33.24
59493;BME280;45497;43.996;22.876;2023-10-09T10:50:01;101956.50;;;19.74;32.93
59493;BME280;45497;43.996;22.876;2023-10-09T10:52:47;101956.72;;;19.85;32.53
59493;BME280;45497;43.996;22.876;2023-10-09T10:55:30;101946.09;;;19.71;32.70
59493;BME280;45497;43.996;22.876;2023-10-09T10:57:56;101940.84;;;19.97;33.04
59493;BME280;45497;43.996;22.876;2023-10-09T11:00:36;101926.94;;;19.87;31.69
59493;BME280;45497;43.996;22.876;2023-10-09T11:03:21;101928.81;;;19.86;32.15
59493;BME280;45497;43.996;22.876;2023-10-09T11:06:02;101926.75;;;19.95;31.67
59493;BME280;45497;43.996;22.876;2023-10-09T11:08:45;101923.59;;;19.78;31.08
59493;BME280;45497;43.996;22.876;2023-10-09T11:11:36;101905.22;;;19.95;31.75
59493;BME280;45497;43.996;22.876;2023-10-09T11:14:13;101901.13;;;20.19;31.81
59493;BME280;45497;43.996;22.876;2023-10-09T11:16:49;101895.97;;;20.38;32.08
59493;BME280;45497;43.996;22.876;2023-10-09T11:19:21;101887.91;;;20.51;31.58
59493;BME280;45497;43.996;22.876;2023-10-09T11:22:14;101883.53;;;20.43;30.60
59493;BME280;45497;43.996;22.876;2023-10-09T11:25:00;101865.91;;;20.34;31.01
59493;BME280;45497;43.996;22.876;2023-10-09T11:27:40;101873.38;;;20.39;30.02
59493;BME280;45497;43.996;22.876;2023-10-09T11:30:15;101859.91;;;20.12;29.49
59493;BME280;45497;43.996;22.876;2023-10-09T11:33:03;101841.41;;;19.82;29.54
59493;BME280;45497;43.996;22.876;2023-10-09T11:35:32;101835.25;;;19.89;29.31
59493;BME280;45497;43.996;22.876;2023-10-09T11:38:01;101834.22;;;20.03;29.68
59493;BME280;45497;43.996;22.876;2023-10-09T11:40:48;101823.28;;;20.31;29.78
59493;BME280;45497;43.996;22.876;2023-10-09T11:43:20;101818.06;;;20.56;29.99
59493;BME280;45497;43.996;22.876;2023-10-09T11:45:52;101822.59;;;20.76;30.02
59493;BME280;45497;43.996;22.876;2023-10-09T11:48:36;101802.09;;;20.75;30.01
59493;BME280;45497;43.996;22.876;2023-10-09T11:51:22;101799.41;;;20.41;28.19
59493;BME280;45497;43.996;22.876;2023-10-09T11:53:53;101803.56;;;20.11;28.47
59493;BME280;45497;43.996;22.876;2023-10-09T11:56:33;101793.66;;;20.04;28.43
59493;BME280;45497;43.996;22.876;2023-10-09T11:59:07;101791.38;;;20.28;28.38
59493;BME280;45497;43.996;22.876;2023-10-09T12:01:37;101789.06;;;20.45;27.82
59493;BME280;45497;43.996;22.876;2023-10-09T12:04:07;101785.16;;;20.21;27.56
59493;BME280;45497;43.996;22.876;2023-10-09T12:06:35;101763.22;;;20.24;28.18
59493;BME280;45497;43.996;22.876;2023-10-09T12:09:03;101757.78;;;20.64;28.81
59493;BME280;45497;43.996;22.876;2023-10-09T12:11:30;101765.34;;;20.94;28.78
59493;BME280;45497;43.996;22.876;2023-10-09T12:13:56;101748.31;;;21.00;28.74
59493;BME280;45497;43.996;22.876;2023-10-09T12:16:24;101756.34;;;21.07;28.59
59493;BME280;45497;43.996;22.876;2023-10-09T12:19:19;101750.50;;;20.65;27.88
59493;BME280;45497;43.996;22.876;2023-10-09T12:21:54;101721.84;;;20.84;28.54
59493;BME280;45497;43.996;22.876;2023-10-09T12:25:03;101725.59;;;21.21;28.74
59493;BME280;45497;43.996;22.876;2023-10-09T12:27:35;101726.94;;;21.37;28.81
59493;BME280;45497;43.996;22.876;2023-10-09T12:30:01;101711.38;;;21.39;28.44
59493;BME280;45497;43.996;22.876;2023-10-09T12:32:29;101708.03;;;21.50;28.50
59493;BME280;45497;43.996;22.876;2023-10-09T12:34:55;101700.56;;;21.46;28.21
59493;BME280;45497;43.996;22.876;2023-10-09T12:37:21;101692.88;;;21.49;28.69
59493;BME280;45497;43.996;22.876;2023-10-09T12:39:51;101682.72;;;21.45;28.53
59493;BME280;45497;43.996;22.876;2023-10-09T12:42:21;101688.81;;;21.33;28.74
59493;BME280;45497;43.996;22.876;2023-10-09T12:44:47;101685.06;;;21.34;28.94
59493;BME280;45497;43.996;22.876;2023-10-09T12:47:14;101671.31;;;21.43;29.06
59493;BME280;45497;43.996;22.876;2023-10-09T12:49:40;101670.28;;;21.44;28.89
59493;BME280;45497;43.996;22.876;2023-10-09T12:52:09;101672.38;;;21.42;28.53
59493;BME280;45497;43.996;22.876;2023-10-09T12:54:45;101665.06;;;21.17;27.89
59493;BME280;45497;43.996;22.876;2023-10-09T12:57:17;101658.81;;;21.23;28.41
59493;BME280;45497;43.996;22.876;2023-10-09T12:59:42;101653.94;;;21.32;28.79
59493;BME280;45497;43.996;22.876;2023-10-09T13:02:12;101634.44;;;21.36;28.79
59493;BME280;45497;43.996;22.876;2023-10-09T13:04:58;101632.78;;;21.35;28.99
59493;BME280;45497;43.996;22.876;2023-10-09T13:07:25;101616.06;;;21.27;28.75
59493;BME280;45497;43.996;22.876;2023-10-09T13:09:52;101607.19;;;21.19;28.56
59493;BME280;45497;43.996;22.876;2023-10-09T13:12:39;101611.09;;;21.24;28.49
59493;BME280;45497;43.996;22.876;2023-10-09T13:15:10;101605.38;;;21.38;28.68
59493;BME280;45497;43.996;22.876;2023-10-09T13:17:42;101598.09;;;21.39;28.68
59493;BME280;45497;43.996;22.876;2023-10-09T13:20:08;101596.63;;;21.43;28.78
59493;BME280;45497;43.996;22.876;2023-10-09T13:22:40;101601.25;;;21.36;28.82
59493;BME280;45497;43.996;22.876;2023-10-09T13:25:12;101601.41;;;21.41;28.93
59493;BME280;45497;43.996;22.876;2023-10-09T13:27:44;101590.38;;;21.43;28.62
59493;BME280;45497;43.996;22.876;2023-10-09T13:30:19;101581.06;;;21.45;28.80
59493;BME280;45497;43.996;22.876;2023-10-09T13:32:50;101578.78;;;21.42;29.00
59493;BME280;45497;43.996;22.876;2023-10-09T13:35:19;101576.13;;;21.35;28.85
59493;BME280;45497;43.996;22.876;2023-10-09T13:37:47;101570.34;;;21.32;29.06